Sunday, December 16, 2018, 1:12 PM EST
Back to Local

KPHL, Philadelphia International Airpt

Location: Philadelphia, PA, United States Lat: 39.867
Local Time: 1:12 PM EST (18:12 GMT) Lon: -75.233
Time Zone: US/Eastern Elev: 19 ft

Show me the last for .
Show Coded

Time T Td Feel RH Dir Speed Gust Alt SLP Vis Weather Sky Remarks
2018-12-16 12:54 42 40 34 91 40° 16 - 29.81 29.81 2 -RA BR OVC009 1-hr Precip Total: 0.06"
6-hr Precip Total (1pm): 0.08"
6-hr Min Temp (1pm): 42.1°F
6-hr Max Temp (1pm): 43.0°F
2018-12-16 12:51 43 39 33 86 40° 15 24 29.81 - 2 RA BR OVC009 1-hr Precip Total: 0.05"
2018-12-16 12:12 43 40 34 88 40° 14 22 29.83 - 3 -RA BR OVC009 1-hr Precip Total: 0.01"
2018-12-16 11:54 43 41 33 92 50° 17 25 29.83 29.83 5 -DZ BR OVC009 1-hr Precip Total: Trace
2018-12-16 11:48 43 41 33 93 50° 17 24 29.83 - 6 -DZ BR OVC009 1-hr Precip Total: Trace
2018-12-16 10:54 43 41 34 92 50° 17 23 29.87 29.87 10 SCT007 OVC010 None
2018-12-16 09:54 43 41 34 92 50° 14 24 29.91 29.90 10 SCT007 OVC010 6-hr Precip Total (10am): 0.02"
2018-12-16 08:54 43 40 34 88 50° 20 24 29.92 29.92 10 SCT007 OVC012 1-hr Precip Total: Trace
2018-12-16 08:26 42 40 32 91 50° 16 25 29.93 - 10 SCT007 OVC011 1-hr Precip Total: Trace
2018-12-16 07:54 42 40 32 91 60° 13 24 29.94 29.93 9 SCT007 OVC011 1-hr Precip Total: 0.02"
2018-12-16 07:09 42 40 33 91 60° 14 23 29.94 - 7 -RA SCT007 OVC011 1-hr Precip Total: 0.01"
2018-12-16 06:54 42 40 32 91 50° 15 25 29.94 29.94 3 -RA BR SCT007 OVC011 1-hr Precip Total: Trace
6-hr Precip Total (7am): 0.62"
24-hr Precip Total (7am): 1.01"
6-hr Min Temp (7am): 41.0°F
6-hr Max Temp (7am): 46.0°F
2018-12-16 06:50 43 39 33 86 50° 16 25 29.94 - 3 -RA BR SCT007 OVC011 1-hr Precip Total: Trace
2018-12-16 06:47 42 40 32 91 60° 13 25 29.94 - 4 -RA BR SCT007 OVC011 1-hr Precip Total: Trace
2018-12-16 06:13 42 39 32 88 50° 18 28 29.95 - 7 -RA SCT007 OVC011 1-hr Precip Total: Trace
2018-12-16 05:54 41 40 33 95 50° 16 - 29.95 29.95 5 -RA BR OVC012 1-hr Precip Total: 0.07"
2018-12-16 04:54 42 40 32 91 50° 15 24 29.97 29.97 5 -RA BR OVC011 1-hr Precip Total: 0.05"
2018-12-16 03:54 43 40 32 88 60° 17 31 29.98 29.98 5 -RA BR OVC011 Peak wind: 35 mph (31 kts) from 50° at 27 min
1-hr Precip Total: 0.08"
6-hr Precip Total (4am): 0.50"
2018-12-16 03:44 43 41 33 92 60° 17 26 29.97 - 5 -RA BR OVC011 Peak wind: 35 mph (31 kts) from 50° at 27 min
1-hr Precip Total: 0.08"
2018-12-16 03:26 43 41 32 92 60° 18 31 29.97 - 4 RA BR OVC012 Peak wind: 32 mph (28 kts) from 50° at 16 min
1-hr Precip Total: 0.06"
2018-12-16 02:54 43 41 34 92 60° 17 24 29.98 29.98 5 RA BR OVC012 1-hr Precip Total: 0.21"
2018-12-16 02:48 43 41 33 93 60° 16 25 29.98 - 5 -RA BR OVC012 1-hr Precip Total: 0.20"
2018-12-16 01:54 43 41 33 92 60° 18 30 29.98 29.97 3 +RA BR OVC015 Peak wind: 29 mph (26 kts) from 40° at 48 min
1-hr Precip Total: 0.21"
2018-12-16 01:40 44 41 34 88 50° 17 28 29.98 - 4 +RA BR OVC015 1-hr Precip Total: 0.12"
2018-12-16 01:09 45 42 36 89 60° 16 28 29.97 - 5 RA BR OVC018 1-hr Precip Total: 0.02"
2018-12-16 00:54 46 43 36 88 70° 20 33 29.96 29.96 7 RA OVC018 Peak wind: 33 mph (29 kts) from 70° at 52 min
1-hr Precip Total: 0.06"
6-hr Precip Total (1am): 0.13"
6-hr Min Temp (1am): 46.0°F
6-hr Max Temp (1am): 50.0°F
2018-12-15 23:54 47 44 39 89 60° 14 25 29.98 29.97 9 -RA OVC018 1-hr Precip Total: 0.04"
24-hr Min Temp (12am): 46.9°F
24-hr Max Temp (12am): 51.1°F
2018-12-15 23:47 47 44 38 89 60° 16 26 29.98 - 9 -RA OVC018 1-hr Precip Total: 0.03"
2018-12-15 23:24 47 44 39 89 60° 15 23 29.99 - 10 -RA OVC020 1-hr Precip Total: 0.03"
2018-12-15 22:59 48 43 40 82 70° 16 25 30.00 - 7 RA OVC022 1-hr Precip Total: 0.02"
2018-12-15 22:54 48 43 40 82 70° 14 23 30.00 30.00 10 -RA OVC021 1-hr Precip Total: Trace
2018-12-15 22:13 48 43 41 82 60° 13 22 30.02 - 10 OVC021 None
2018-12-15 21:54 48 43 41 82 50° 13 20 30.03 30.02 8 BKN021 BKN039 OVC050 1-hr Precip Total: 0.02"
6-hr Precip Total (10pm): 0.03"
2018-12-15 21:27 48 43 40 82 60° 13 24 30.03 - 7 -RA OVC021 1-hr Precip Total: 0.02"
2018-12-15 20:54 48 43 43 82 50° 12 - 30.04 30.04 10 -RA OVC021 1-hr Precip Total: 0.01"
2018-12-15 19:54 50 43 44 76 40° 16 - 30.07 30.07 10 OVC021 1-hr Precip Total: Trace
2018-12-15 18:54 50 46 46 86 40° 10 - 30.05 30.05 10 BKN021 OVC110 6-hr Precip Total (7pm): 0.05"
6-hr Min Temp (7pm): 50.0°F
6-hr Max Temp (7pm): 51.1°F
2018-12-15 18:42 50 46 46 86 60° 9 - 30.05 - 10 BKN021 OVC110 None
2018-12-15 17:54 50 47 47 89 50° 8 - 30.05 30.04 8 SCT025 BKN080 OVC100 None
2018-12-15 17:14 50 48 44 92 50° 9 18 30.03 - 7 SCT015 BKN022 OVC110 None
2018-12-15 16:54 50 48 46 92 50° 9 - 30.03 30.03 7 FEW009 BKN015 OVC021 1-hr Precip Total: Trace
2018-12-15 16:42 50 49 47 96 50° 7 - 30.06 - 7 SCT009 BKN015 OVC021 1-hr Precip Total: Trace
2018-12-15 15:54 50 49 46 96 60° 9 - 30.05 30.05 4 -DZ BR OVC006 1-hr Precip Total: Trace
6-hr Precip Total (4pm): 0.05"
2018-12-15 15:31 50 49 47 96 60° 8 - 30.04 - 4 -DZ BR OVC005 1-hr Precip Total: Trace
2018-12-15 14:54 50 49 45 96 50° 15 - 30.02 30.02 2 -DZ BR BKN005 OVC012 1-hr Precip Total: Trace
2018-12-15 14:06 51 49 - 92 50° 14 22 30.06 - 2 -RA BR BKN005 OVC016 1-hr Precip Total: Trace
2018-12-15 13:54 50 50 46 100 50° 10 - 30.06 30.06 2 -RA BR BKN004 OVC010 1-hr Precip Total: 0.05"

Support USWX by starting your Amazon purchase here.